Time;durP1;ratioP1;P1;durP2;ratioP2;P2;SDS_P1;SDS_P2;PMS_P1;PMS_P2;Temp;Humidity;BMP_temperature;BMP_pressure;BME280_temperature;BME280_humidity;BME280_pressure;Samples;Min_cycle;Max_cycle;Signal;HPM_P1;HPM_P2
2022/08/23 00:08:32;;;;;;;3.58;2.45;;;;;;;15.23;100.00;97604.75;18219717;32;20088;-62
2022/08/23 00:18:50;;;;;;;3.45;2.42;;;;;;;15.11;100.00;97604.44;18220019;32;20058;-63
2022/08/23 00:29:05;;;;;;;3.22;2.45;;;;;;;15.01;100.00;97608.16;18233617;32;20077;-63
2022/08/23 00:39:08;;;;;;;2.90;2.08;;;;;;;14.98;100.00;97598.69;18233289;32;20050;-62
2022/08/23 00:49:12;;;;;;;4.37;2.25;;;;;;;14.90;100.00;97589.28;18232528;32;20092;-62
2022/08/23 00:59:37;;;;;;;7.25;2.30;;;;;;;14.82;100.00;97589.19;18231974;32;20095;-62
2022/08/23 01:09:50;;;;;;;4.32;2.55;;;;;;;14.71;100.00;97588.56;18231411;32;20122;-63
2022/08/23 01:20:05;;;;;;;3.80;2.15;;;;;;;14.58;100.00;97599.06;18235237;32;20086;-62
2022/08/23 01:30:16;;;;;;;2.42;2.08;;;;;;;14.55;100.00;97599.66;18241505;32;20098;-63
2022/08/23 01:40:31;;;;;;;4.93;2.80;;;;;;;14.47;100.00;97600.34;18241074;32;20149;-63
2022/08/23 01:50:38;;;;;;;3.72;2.33;;;;;;;14.41;100.00;97610.47;18240459;32;20055;-62
2022/08/23 02:00:43;;;;;;;2.85;2.20;;;;;;;14.29;100.00;97603.91;18239713;32;20081;-62
2022/08/23 02:10:51;;;;;;;5.62;2.58;;;;;;;14.21;100.00;97600.75;18225689;32;20073;-62
2022/08/23 02:20:58;;;;;;;3.10;2.15;;;;;;;14.21;100.00;97602.63;18239367;32;20073;-62
2022/08/23 02:31:08;;;;;;;3.40;2.60;;;;;;;14.21;100.00;97616.25;18237935;32;20485;-62
2022/08/23 02:41:20;;;;;;;3.22;2.35;;;;;;;14.14;100.00;97630.22;18238756;32;20120;-62
2022/08/23 02:51:28;;;;;;;2.83;2.28;;;;;;;14.03;100.00;97635.00;18237868;32;20054;-62
2022/08/23 03:01:40;;;;;;;2.70;2.03;;;;;;;13.99;100.00;97630.44;18236965;32;20103;-62
2022/08/23 03:11:51;;;;;;;2.70;2.05;;;;;;;13.95;100.00;97643.00;18236867;32;20066;-62
2022/08/23 03:21:59;;;;;;;5.50;2.70;;;;;;;13.84;100.00;97643.13;18223591;32;20072;-62
2022/08/23 03:32:06;;;;;;;2.78;2.12;;;;;;;13.80;100.00;97647.53;18236173;32;20077;-62
2022/08/23 03:42:12;;;;;;;2.97;2.30;;;;;;;13.76;100.00;97651.94;18101485;32;20062;-62
2022/08/23 03:52:14;;;;;;;7.37;2.55;;;;;;;13.79;100.00;97650.56;18088649;32;20145;-63
2022/08/23 04:02:17;;;;;;;3.25;2.33;;;;;;;13.72;100.00;97667.22;18100483;32;20110;-63
2022/08/23 04:12:20;;;;;;;3.45;2.53;;;;;;;13.64;100.00;97676.00;18046764;32;20390;-63
2022/08/23 04:22:23;;;;;;;3.23;2.33;;;;;;;13.56;100.00;97674.72;18087202;32;20058;-63
2022/08/23 04:32:26;;;;;;;4.47;2.92;;;;;;;13.47;100.00;97685.41;18086815;32;20075;-63
2022/08/23 04:42:29;;;;;;;3.90;2.60;;;;;;;13.47;100.00;97681.88;18205046;32;20065;-63
2022/08/23 04:52:32;;;;;;;3.03;2.22;;;;;;;13.48;100.00;97692.44;18231821;32;20088;-63
2022/08/23 05:02:35;;;;;;;4.22;2.62;;;;;;;13.48;100.00;97697.09;18217635;32;20043;-63
2022/08/23 05:12:38;;;;;;;7.85;2.87;;;;;;;13.54;100.00;97704.91;18217942;32;20066;-63
2022/08/23 05:22:41;;;;;;;3.62;2.90;;;;;;;13.70;100.00;97726.44;18192648;32;20054;-63
2022/08/23 05:32:44;;;;;;;4.05;2.15;;;;;;;13.87;100.00;97745.84;18216874;32;20067;-63
2022/08/23 05:42:47;;;;;;;4.75;2.45;;;;;;;14.11;100.00;97758.59;18095784;32;20114;-63
2022/08/23 05:52:51;;;;;;;3.30;2.80;;;;;;;14.46;100.00;97756.53;18083097;32;20567;-63
2022/08/23 06:02:58;;;;;;;3.37;2.42;;;;;;;14.82;100.00;97764.19;18082530;32;20059;-62
2022/08/23 06:13:03;;;;;;;3.25;2.20;;;;;;;15.19;100.00;97767.97;18114516;32;20054;-63
2022/08/23 06:23:08;;;;;;;3.00;2.65;;;;;;;15.57;100.00;97778.75;18105092;32;20141;-63
2022/08/23 06:33:16;;;;;;;2.87;2.55;;;;;;;15.96;100.00;97786.81;18104953;32;20075;-63
2022/08/23 06:43:41;;;;;;;3.10;2.80;;;;;;;16.32;100.00;97797.00;18104308;32;20104;-63
2022/08/23 06:53:45;;;;;;;3.67;2.53;;;;;;;16.70;99.56;97803.00;18117463;32;20066;-63
2022/08/23 07:03:58;;;;;;;3.33;2.45;;;;;;;17.13;96.61;97815.47;18223034;32;20076;-64
2022/08/23 07:14:12;;;;;;;3.53;2.30;;;;;;;17.53;92.27;97815.59;18236763;32;20058;-63
2022/08/23 07:24:38;;;;;;;3.65;2.50;;;;;;;17.99;90.93;97821.00;18236610;32;20134;-63
2022/08/23 07:34:45;;;;;;;3.28;2.50;;;;;;;18.39;87.99;97816.34;18235811;32;20061;-63
2022/08/23 07:44:56;;;;;;;3.85;2.80;;;;;;;18.98;85.91;97836.25;18235491;32;20042;-63
2022/08/23 07:55:38;;;;;;;3.75;2.67;;;;;;;19.52;82.32;97834.00;18235377;32;20050;-63
2022/08/23 08:05:42;;;;;;;3.22;2.70;;;;;;;20.15;76.61;97833.53;18220496;32;20038;-63
2022/08/23 08:15:45;;;;;;;4.93;3.22;;;;;;;20.64;75.84;97842.19;18234543;32;20073;-63
2022/08/23 08:26:00;;;;;;;5.32;3.10;;;;;;;21.05;73.16;97850.03;18233518;32;20466;-63
2022/08/23 08:36:05;;;;;;;7.03;2.65;;;;;;;21.47;68.28;97847.25;18233474;32;20069;-63
2022/08/23 08:46:26;;;;;;;3.95;2.83;;;;;;;21.96;65.12;97846.63;18233295;32;20440;-63
2022/08/23 08:56:37;;;;;;;4.00;3.00;;;;;;;22.39;63.15;97859.09;18232463;32;20080;-63
2022/08/23 09:07:14;;;;;;;5.47;3.20;;;;;;;22.92;62.58;97844.63;18167947;32;20098;-63
2022/08/23 09:17:32;;;;;;;4.18;3.12;;;;;;;23.42;63.42;97850.81;18168844;32;20095;-63
2022/08/23 09:27:40;;;;;;;3.37;2.97;;;;;;;23.75;62.01;97861.59;18168271;32;20067;-63
2022/08/23 09:38:51;;;;;;;5.90;3.33;;;;;;;24.13;59.93;97859.44;18167369;32;20051;-62
2022/08/23 09:49:00;;;;;;;5.97;3.25;;;;;;;24.42;58.47;97849.13;18178484;32;20051;-63
2022/08/23 09:59:39;;;;;;;2.73;2.33;;;;;;;24.87;53.54;97839.53;18181305;32;20087;-63
2022/08/23 10:10:23;;;;;;;2.90;2.05;;;;;;;25.27;54.68;97843.16;18239645;32;20087;-63
2022/08/23 10:21:01;;;;;;;3.83;2.47;;;;;;;25.61;55.25;97837.94;18239398;32;20076;-63
2022/08/23 10:31:30;;;;;;;2.93;2.00;;;;;;;25.88;50.54;97825.78;18238873;32;20059;-63
2022/08/23 10:41:39;;;;;;;2.87;2.10;;;;;;;26.19;47.72;97821.19;18238635;32;20176;-63
2022/08/23 10:51:48;;;;;;;3.33;2.20;;;;;;;26.54;45.26;97819.38;18237446;32;20051;-63
2022/08/23 11:02:08;;;;;;;3.58;2.05;;;;;;;26.78;43.90;97811.81;18236880;32;20047;-63
2022/08/23 11:12:26;;;;;;;4.20;1.98;;;;;;;27.23;45.15;97801.72;18236954;32;20054;-63
2022/08/23 11:22:32;;;;;;;3.22;2.12;;;;;;;27.33;41.61;97780.81;18236240;32;20059;-62
2022/08/23 11:32:45;;;;;;;3.22;2.25;;;;;;;27.66;44.93;97793.88;18209911;32;20092;-63
2022/08/23 11:43:05;;;;;;;5.03;2.10;;;;;;;28.00;42.91;97790.28;18235671;32;20063;-62
2022/08/23 11:53:41;;;;;;;4.07;2.55;;;;;;;28.33;41.20;97783.78;18286783;32;20106;-62
2022/08/23 12:04:17;;;;;;;3.90;2.15;;;;;;;28.64;40.82;97783.63;18219307;32;20120;-61
2022/08/23 12:14:30;;;;;;;3.00;2.67;;;;;;;28.86;39.75;97781.75;18234772;32;20129;-62
2022/08/23 12:25:07;;;;;;;3.62;2.10;;;;;;;29.30;33.59;97777.22;18233737;32;20073;-63
2022/08/23 12:35:24;;;;;;;2.83;2.10;;;;;;;29.65;37.44;97768.16;18233770;32;20109;-62
2022/08/23 12:46:23;;;;;;;2.47;2.00;;;;;;;29.92;35.45;97765.81;18232872;32;20124;-63
2022/08/23 12:56:56;;;;;;;3.05;2.03;;;;;;;30.22;39.50;97775.00;18232342;32;20432;-63
2022/08/23 13:07:25;;;;;;;4.20;1.80;;;;;;;30.66;39.48;97762.59;18167681;32;20046;-62
2022/08/23 13:19:09;;;;;;;2.50;1.75;;;;;;;30.82;35.24;97755.78;18034003;32;20056;-62
2022/08/23 13:29:18;;;;;;;3.05;1.00;;;;;;;30.97;28.48;97765.69;18238730;32;20318;-62
2022/08/23 13:39:29;;;;;;;3.30;1.10;;;;;;;30.91;30.29;97762.53;18176819;32;20384;-62
2022/08/23 13:49:41;;;;;;;4.53;1.58;;;;;;;31.50;26.30;97754.72;18025229;32;20113;-62
2022/08/23 13:59:54;;;;;;;2.83;1.40;;;;;;;31.53;30.11;97751.87;18058704;32;20054;-62
2022/08/23 14:09:57;;;;;;;2.55;1.42;;;;;;;32.08;29.68;97750.31;18153743;32;20115;-62
2022/08/23 14:20:02;;;;;;;2.15;1.60;;;;;;;31.64;27.62;97746.25;18182862;32;20100;-62
2022/08/23 14:30:30;;;;;;;1.73;1.20;;;;;;;31.78;31.28;97739.78;18178434;32;20122;-62
2022/08/23 14:40:37;;;;;;;1.40;1.17;;;;;;;31.93;26.46;97734.84;18175383;32;20431;-63
2022/08/23 14:50:43;;;;;;;2.83;1.50;;;;;;;32.05;32.54;97723.16;18175535;32;20077;-62
2022/08/23 15:00:47;;;;;;;2.65;1.42;;;;;;;31.03;29.56;97727.81;18173395;32;20320;-62
2022/08/23 15:10:53;;;;;;;2.33;1.10;;;;;;;29.66;32.25;97724.38;18237305;32;20073;-62
2022/08/23 15:21:17;;;;;;;1.30;1.10;;;;;;;29.16;31.89;97717.50;18236925;32;20129;-62
2022/08/23 15:31:22;;;;;;;2.45;1.45;;;;;;;28.49;31.05;97704.81;18210713;32;20050;-62
2022/08/23 15:41:25;;;;;;;1.77;1.42;;;;;;;28.12;33.88;97709.38;18235861;32;20370;-62
2022/08/23 15:51:30;;;;;;;1.65;1.25;;;;;;;27.81;34.51;97707.91;18235708;32;20423;-62
2022/08/23 16:01:34;;;;;;;2.10;1.20;;;;;;;27.34;36.25;97702.69;18220841;32;20095;-62
2022/08/23 16:11:37;;;;;;;2.15;1.50;;;;;;;27.11;37.14;97696.50;18234969;32;20077;-62
2022/08/23 16:21:40;;;;;;;1.90;1.17;;;;;;;26.84;39.64;97688.25;18220316;32;20058;-63
2022/08/23 16:31:44;;;;;;;2.12;1.30;;;;;;;26.46;36.35;97690.13;18233560;32;20359;-62
2022/08/23 16:41:47;;;;;;;3.30;1.60;;;;;;;26.10;43.92;97686.84;18219796;32;20076;-63
2022/08/23 16:51:51;;;;;;;1.90;1.30;;;;;;;26.00;46.03;97689.03;18218472;32;20114;-62
2022/08/23 17:02:01;;;;;;;1.95;1.17;;;;;;;25.89;41.87;97685.31;18218002;32;20043;-63
2022/08/23 17:12:14;;;;;;;2.03;1.08;;;;;;;25.51;42.41;97687.84;18097933;32;20071;-62
2022/08/23 17:22:18;;;;;;;1.40;1.10;;;;;;;25.37;42.94;97688.41;18097438;32;20074;-62
2022/08/23 17:32:20;;;;;;;1.60;1.15;;;;;;;24.73;41.63;97689.91;18072024;32;20120;-62
2022/08/23 17:42:23;;;;;;;3.33;1.48;;;;;;;24.22;47.03;97691.56;18190683;32;20393;-62
2022/08/23 17:52:28;;;;;;;1.77;1.20;;;;;;;23.53;51.59;97708.44;18216448;32;20073;-62
2022/08/23 18:02:46;;;;;;;1.98;1.30;;;;;;;22.88;54.96;97717.66;18234161;32;20073;-62
2022/08/23 18:12:49;;;;;;;1.33;1.20;;;;;;;22.21;57.83;97718.03;18226341;32;20087;-62
2022/08/23 18:22:52;;;;;;;2.10;1.55;;;;;;;21.65;61.84;97722.16;18213123;32;20066;-61
2022/08/23 18:32:56;;;;;;;2.55;1.08;;;;;;;21.19;64.72;97743.34;18238983;32;20433;-62
2022/08/23 18:42:59;;;;;;;1.83;1.40;;;;;;;20.74;66.59;97757.78;18238966;32;20042;-63
2022/08/23 18:53:01;;;;;;;3.75;1.55;;;;;;;20.38;69.61;97775.59;18238199;32;20385;-61
2022/08/23 19:03:06;;;;;;;3.12;1.35;;;;;;;20.03;72.12;97778.53;18223949;32;20066;-62
2022/08/23 19:13:10;;;;;;;2.85;1.33;;;;;;;19.72;74.35;97794.09;18223050;32;20368;-62
2022/08/23 19:23:12;;;;;;;;;;;;;;;19.40;76.44;97804.47;18211133;32;20113;-62
2022/08/23 19:33:16;;;;;;;3.80;1.50;;;;;;;19.06;77.52;97813.53;18236614;32;19954;-62
2022/08/23 19:43:18;;;;;;;2.80;1.50;;;;;;;18.79;78.70;97823.66;18236211;32;20043;-61
2022/08/23 19:53:21;;;;;;;2.03;1.83;;;;;;;18.51;79.80;97823.13;18235460;32;20107;-62
2022/08/23 20:03:25;;;;;;;2.57;1.70;;;;;;;18.32;81.34;97835.13;18220992;32;20073;-62
2022/08/23 20:13:31;;;;;;;2.87;1.70;;;;;;;18.15;82.37;97843.28;18221820;32;20074;-62
2022/08/23 20:33:57;;;;;;;3.17;1.70;;;;;;;17.77;83.32;97845.34;18099556;32;20437;-62
2022/08/23 20:44:05;;;;;;;1.80;1.55;;;;;;;17.65;84.05;97847.84;17975603;33;20067;-62
2022/08/23 20:54:09;;;;;;;2.50;1.77;;;;;;;17.50;84.21;97853.66;17975261;33;20079;-62
2022/08/23 21:04:11;;;;;;;2.53;1.70;;;;;;;17.35;85.13;97849.38;17984025;32;20063;-62
2022/08/23 21:14:15;;;;;;;4.45;1.70;;;;;;;17.23;86.62;97847.22;18092041;32;20134;-62
2022/08/23 21:24:19;;;;;;;5.35;1.70;;;;;;;17.06;87.24;97853.31;18105370;32;20110;-61
2022/08/23 21:34:22;;;;;;;4.03;1.75;;;;;;;16.93;88.89;97850.31;18107273;32;20066;-62
2022/08/23 21:44:24;;;;;;;2.12;1.70;;;;;;;16.75;88.54;97843.06;18116485;32;20110;-62
2022/08/23 21:54:27;;;;;;;3.53;1.75;;;;;;;16.62;88.55;97838.44;18116296;32;20055;-61
2022/08/23 22:04:29;;;;;;;3.15;1.77;;;;;;;16.47;89.47;97836.81;18179122;32;20443;-62
2022/08/23 22:14:32;;;;;;;2.33;1.85;;;;;;;16.33;89.42;97837.63;18239779;32;20073;-62
2022/08/23 22:24:34;;;;;;;2.50;1.90;;;;;;;16.15;90.45;97836.63;18239733;32;20050;-62
2022/08/23 22:34:37;;;;;;;2.70;1.92;;;;;;;16.02;91.07;97840.97;18225217;32;20121;-62
2022/08/23 22:44:39;;;;;;;2.05;1.60;;;;;;;15.92;91.56;97838.41;18238337;32;20110;-62
2022/08/23 22:54:41;;;;;;;1.95;1.77;;;;;;;15.78;92.50;97834.84;18237317;32;20065;-62
2022/08/23 23:04:44;;;;;;;2.87;1.62;;;;;;;15.65;92.86;97829.06;18211127;32;20047;-62
2022/08/23 23:14:47;;;;;;;1.92;1.70;;;;;;;15.53;93.40;97836.91;18237393;32;20050;-62
2022/08/23 23:24:49;;;;;;;3.25;1.70;;;;;;;15.40;93.43;97827.56;18236969;32;20108;-62
2022/08/23 23:34:53;;;;;;;4.12;1.67;;;;;;;15.30;93.72;97825.00;18236468;32;20114;-62
2022/08/23 23:44:58;;;;;;;2.10;1.60;;;;;;;15.21;94.90;97814.78;18236276;32;20055;-62
2022/08/23 23:55:02;;;;;;;3.15;1.90;;;;;;;15.08;95.23;97818.25;18235784;32;20062;-63
